Impacts METAR Board
IDs:

KMIA - Miami Intl, FL, US

Updated at: 1600 UTC 20 Aug 2019
Potential Impact None Slight Moderate High
Time 20/04Z 20/05Z 20/06Z 20/07Z 20/08Z 20/09Z 20/10Z 20/11Z 20/12Z 20/13Z 20/14Z 20/15Z 20/16Z
Temp81 80 82 82 82 82 81 81 81 83 84 86 88
Dewpt73 74 73 73 72 74 74 72 74 73 73 70 71
Altim30.07 30.07 30.05 30.03 30.02 30.02 30.04 30.07 30.09 30.09 30.09 30.09 30.10
VIS10 10 10 10 10 10 10 10 10 10 10 10 10
CIG-- -- -- -- 55 -- 160 140 50 160 150 250 150
CoverSCTSCTSCTSCTBKNSCTBKNOVCBKNBKNBKNBKNBKN
FltCatVFRVFRVFRVFRVFRVFRVFRVFRVFRVFRVFRVFRVFR
WX--------------------------
WDir9014011011010014013011010012011012090
WSpd3 3 7 4 6 5 6 6 8 11 7 8 14
WGst-- -- -- -- -- -- -- -- -- -- -- -- --
Raw hourly METARs
KMIA 200353Z 09003KT 10SM FEW027 FEW090 SCT150 SCT220 27/23 A3007 RMK AO2 SLP182 T02720228
KMIA 200453Z 14003KT 10SM FEW030 FEW100 SCT160 SCT220 27/23 A3007 RMK AO2 SLP182 T02670233 403330250
KMIA 200553Z 11007KT 10SM FEW030 FEW100 SCT160 SCT220 28/23 A3005 RMK AO2 SLP176 60001 T02780228 10300 20267 58004
KMIA 200653Z 11004KT 10SM FEW027 FEW080 SCT160 SCT220 28/23 A3003 RMK AO2 SLP168 T02780228
KMIA 200753Z 10006KT 10SM FEW026 BKN055 BKN150 BKN220 28/22 A3002 RMK AO2 SLP167 T02780222
KMIA 200853Z 14005KT 10SM FEW028 FEW050 SCT090 SCT130 28/23 A3002 RMK AO2 RAB13E38 SLP167 P0000 60000 T02780233 56009
KMIA 200953Z 13006KT 10SM FEW028 FEW050 SCT090 BKN160 27/23 A3004 RMK AO2 SLP172 T02720233
KMIA 201053Z 11006KT 10SM SCT025CB SCT040 SCT060 OVC140 27/22 A3007 RMK AO2 SLP182 CB NE MOV NW T02720222
KMIA 201153Z 10008KT 10SM SCT018CB BKN050 BKN150 BKN200 27/23 A3009 RMK AO2 SLP188 CB S-SW MOV NW CB DSNT NW 60000 70040 T02720233 10283 20267 52021
KMIA 201253Z COR 12011KT 10SM SCT024 SCT050 BKN160 BKN220 28/23 A3009 RMK AO2 SLP189 T02830228
KMIA 201353Z 11007KT 10SM FEW021 SCT050 BKN150 BKN250 29/23 A3009 RMK AO2 SLP191 T02890228
KMIA 201453Z 12008KT 10SM FEW020 SCT150 BKN250 30/21 A3009 RMK AO2 SLP190 T03000211 50002
KMIA 201553Z 09014KT 10SM SCT030 BKN150 BKN250 31/22 A3010 RMK AO2 SLP193 T03110217



Page loaded:  16:39 UTC  |   09:39 AM Pacific  |   10:39 AM Mountain  |   11:39 AM Central  |   12:39 PM Eastern

 

ADVISORIES

FORECASTS

FORECASTS

OBSERVATIONS

USER TOOLS

ABOUT US